Time;durP1;ratioP1;P1;durP2;ratioP2;P2;SDS_P1;SDS_P2;PMS_P1;PMS_P2;Temp;Humidity;BMP_temperature;BMP_pressure;BME280_temperature;BME280_humidity;BME280_pressure;Samples;Min_cycle;Max_cycle;Signal;HPM_P1;HPM_P2
2023/04/14 00:02:23;;;;;;;13.40;2.60;;;3.50;99.90;;;;;;5054204;28;20055;-89
2023/04/14 00:04:52;;;;;;;5.68;2.80;;;3.50;99.90;;;;;;5057666;28;20052;-88
2023/04/14 00:07:18;;;;;;;4.97;2.22;;;3.50;99.90;;;;;;5057998;28;20051;-88
2023/04/14 00:09:44;;;;;;;8.52;2.58;;;3.80;99.90;;;;;;5040492;28;20043;-89
2023/04/14 00:12:09;;;;;;;4.95;2.53;;;3.70;99.90;;;;;;5048583;28;20040;-88
2023/04/14 00:14:35;;;;;;;8.18;2.40;;;4.00;99.90;;;;;;5074334;28;20059;-90
2023/04/14 00:17:01;;;;;;;5.00;2.17;;;3.70;99.90;;;;;;5060133;28;20051;-89
2023/04/14 00:19:26;;;;;;;8.95;2.00;;;3.90;99.90;;;;;;5041221;28;20052;-89
2023/04/14 00:21:52;;;;;;;4.32;1.80;;;4.00;99.90;;;;;;5053913;28;20044;-90
2023/04/14 00:24:19;;;;;;;4.00;1.73;;;4.00;99.90;;;;;;5055687;28;20117;-90
2023/04/14 00:26:45;;;;;;;5.72;1.88;;;4.00;99.90;;;;;;5069693;28;20059;-91
2023/04/14 00:29:11;;;;;;;6.82;2.05;;;4.00;99.90;;;;;;5058870;28;20040;-90
2023/04/14 00:31:36;;;;;;;5.90;2.00;;;4.20;99.90;;;;;;5059644;28;20080;-90
2023/04/14 00:34:02;;;;;;;6.93;2.25;;;4.20;99.90;;;;;;5047235;28;20466;-90
2023/04/14 00:36:28;;;;;;;5.68;2.17;;;4.60;97.10;;;;;;5035757;28;20055;-89
2023/04/14 00:38:56;;;;;;;9.40;2.65;;;4.60;99.90;;;;;;5064599;28;20063;-89
2023/04/14 00:41:24;;;;;;;9.98;2.70;;;4.20;99.90;;;;;;5039002;28;20040;-89
2023/04/14 00:43:53;;;;;;;4.97;1.98;;;4.30;99.90;;;;;;5077314;28;20070;-89
2023/04/14 00:46:20;;;;;;;7.20;2.53;;;4.00;99.90;;;;;;5050779;28;20075;-89
2023/04/14 00:48:46;;;;;;;6.82;3.00;;;4.40;99.90;;;;;;5047139;28;20082;-91
2023/04/14 00:51:12;;;;;;;7.80;2.55;;;3.70;99.90;;;;;;5061846;28;20035;-89
2023/04/14 00:53:38;;;;;;;4.93;1.90;;;3.90;99.90;;;;;;5062440;28;20093;-90
2023/04/14 00:56:04;;;;;;;3.95;1.98;;;3.90;99.90;;;;;;5066208;28;20079;-90
2023/04/14 00:58:31;;;;;;;6.53;2.28;;;3.70;99.90;;;;;;5071704;28;20068;-88
2023/04/14 01:00:57;;;;;;;4.00;1.92;;;3.90;99.90;;;;;;5043090;28;20040;-89
2023/04/14 01:03:23;;;;;;;5.28;1.98;;;3.80;99.90;;;;;;5035290;28;20480;-89
2023/04/14 01:05:51;;;;;;;9.23;2.28;;;3.40;99.90;;;;;;5058092;28;20044;-89
2023/04/14 01:08:18;;;;;;;6.78;2.20;;;3.50;99.90;;;;;;5052891;28;20408;-89
2023/04/14 01:11:16;;;;;;;4.75;2.33;;;3.10;99.90;;;;;;5038896;28;20045;-90
2023/04/14 01:14:08;;;;;;;4.38;1.70;;;3.00;99.90;;;;;;5036642;28;20052;-88
2023/04/14 01:16:39;;;;;;;8.27;2.63;;;2.90;99.90;;;;;;5051888;28;20083;-90
2023/04/14 01:19:23;;;;;;;9.60;2.47;;;2.80;99.90;;;;;;5053224;28;20128;-91
2023/04/14 01:21:53;;;;;;;4.88;2.28;;;2.80;99.90;;;;;;5073686;28;20164;-91
2023/04/14 01:24:22;;;;;;;5.45;2.00;;;2.70;99.90;;;;;;5049092;28;20052;-89
2023/04/14 01:27:12;;;;;;;6.80;2.20;;;2.50;99.90;;;;;;5085743;28;20052;-90
2023/04/14 01:30:01;;;;;;;6.68;2.22;;;2.70;99.90;;;;;;5017464;28;20053;-88
2023/04/14 01:32:33;;;;;;;5.35;2.83;;;2.50;99.90;;;;;;5046754;28;20056;-88
2023/04/14 01:35:16;;;;;;;7.57;2.45;;;2.40;99.90;;;;;;5068905;28;20084;-88
2023/04/14 01:37:54;;;;;;;3.58;1.92;;;2.50;99.90;;;;;;5054704;28;20043;-89
2023/04/14 01:40:24;;;;;;;8.75;2.42;;;2.80;99.90;;;;;;5060852;28;20417;-88
2023/04/14 01:43:01;;;;;;;6.18;2.47;;;2.70;99.90;;;;;;5057506;28;20032;-89
2023/04/14 01:45:33;;;;;;;5.57;2.20;;;2.40;99.90;;;;;;5060768;28;20048;-88
2023/04/14 01:47:59;;;;;;;7.60;1.73;;;2.80;99.90;;;;;;5055793;28;20491;-89
2023/04/14 01:50:26;;;;;;;6.15;2.30;;;2.50;99.90;;;;;;5035569;28;20082;-88
2023/04/14 01:52:53;;;;;;;5.05;2.40;;;2.50;99.90;;;;;;5072305;28;20056;-89
2023/04/14 01:55:22;;;;;;;5.30;2.38;;;2.60;99.90;;;;;;5034017;28;20044;-89
2023/04/14 01:57:51;;;;;;;6.22;2.50;;;2.70;1.00;;;;;;5045438;28;20044;-88
2023/04/14 02:00:18;;;;;;;5.88;2.30;;;2.70;1.00;;;;;;5081598;28;20059;-88
2023/04/14 02:02:46;;;;;;;9.20;2.72;;;2.70;1.00;;;;;;5058657;28;20132;-89
2023/04/14 02:05:14;;;;;;;8.70;2.83;;;3.20;1.00;;;;;;5072321;28;20048;-89
2023/04/14 02:07:41;;;;;;;7.18;2.20;;;3.00;1.00;;;;;;5056841;28;21226;-89
2023/04/14 02:10:12;;;;;;;8.13;3.53;;;3.00;1.00;;;;;;5056409;28;20045;-89
2023/04/14 02:12:40;;;;;;;6.40;2.25;;;3.10;1.00;;;;;;5062379;28;20047;-88
2023/04/14 02:15:12;;;;;;;6.50;2.35;;;3.20;1.00;;;;;;5059864;28;20048;-89
2023/04/14 02:17:40;;;;;;;9.35;2.42;;;3.30;1.00;;;;;;5065953;28;20158;-89
2023/04/14 02:20:11;;;;;;;5.90;1.92;;;3.70;1.00;;;;;;5057860;28;20058;-89
2023/04/14 02:22:37;;;;;;;4.70;2.10;;;3.30;1.00;;;;;;5057235;28;20051;-89
2023/04/14 02:25:03;;;;;;;6.35;2.40;;;3.50;1.00;;;;;;5075407;28;20627;-89
2023/04/14 02:27:44;;;;;;;5.93;1.70;;;3.30;1.00;;;;;;5054094;28;20040;-89
2023/04/14 02:30:21;;;;;;;3.45;1.95;;;3.40;1.00;;;;;;5067402;28;20136;-89
2023/04/14 02:32:52;;;;;;;6.15;2.53;;;3.70;1.00;;;;;;5069747;28;20123;-89
2023/04/14 02:35:29;;;;;;;4.90;1.70;;;3.40;1.00;;;;;;5090139;28;20051;-89
2023/04/14 02:38:07;;;;;;;7.95;2.30;;;3.50;1.00;;;;;;5053152;28;20040;-90
2023/04/14 02:40:38;;;;;;;9.07;2.30;;;3.60;1.00;;;;;;5090137;28;20051;-89
2023/04/14 02:43:11;;;;;;;5.88;2.30;;;3.60;1.00;;;;;;5073920;28;20052;-90
2023/04/14 02:45:39;;;;;;;7.28;2.67;;;3.70;1.00;;;;;;5057450;28;20052;-89
2023/04/14 02:48:10;;;;;;;8.05;2.20;;;4.00;1.00;;;;;;5059341;28;20446;-89
2023/04/14 02:50:37;;;;;;;7.50;2.25;;;4.10;1.00;;;;;;5060006;28;20042;-89
2023/04/14 02:53:04;;;;;;;5.13;2.33;;;3.80;99.90;;;;;;5059994;28;20071;-90
2023/04/14 02:55:31;;;;;;;5.18;2.42;;;3.80;99.90;;;;;;5061534;28;20076;-89
2023/04/14 02:57:59;;;;;;;8.52;2.45;;;4.00;99.90;;;;;;5056594;28;20519;-89
2023/04/14 03:00:26;;;;;;;3.25;2.10;;;4.00;99.90;;;;;;5093534;28;20074;-89
2023/04/14 03:02:53;;;;;;;6.40;2.38;;;4.40;99.90;;;;;;5060452;28;20139;-89
2023/04/14 03:05:20;;;;;;;6.13;2.05;;;3.90;99.90;;;;;;5080181;28;20477;-88
2023/04/14 03:07:46;;;;;;;6.22;3.35;;;4.00;99.90;;;;;;5075759;28;20078;-88
2023/04/14 03:10:13;;;;;;;7.68;2.50;;;4.30;99.90;;;;;;5084359;28;20040;-89
2023/04/14 03:12:41;;;;;;;3.80;2.42;;;4.10;99.90;;;;;;5064270;28;20134;-90
2023/04/14 03:15:08;;;;;;;6.88;2.30;;;4.00;99.90;;;;;;5086434;28;20405;-92
2023/04/14 03:17:36;;;;;;;7.72;2.40;;;4.00;99.90;;;;;;5087299;28;20111;-89
2023/04/14 03:20:02;;;;;;;4.75;1.92;;;4.00;1.00;;;;;;5086902;28;20180;-89
2023/04/14 03:22:29;;;;;;;4.15;2.25;;;4.00;1.00;;;;;;5051292;28;20043;-89
2023/04/14 03:24:59;;;;;;;5.57;2.55;;;4.00;1.00;;;;;;5035753;28;20045;-89
2023/04/14 03:27:29;;;;;;;4.75;2.40;;;4.00;1.00;;;;;;5070850;28;20056;-90
2023/04/14 03:30:00;;;;;;;4.32;1.85;;;3.90;1.00;;;;;;5075721;28;20066;-90
2023/04/14 03:32:29;;;;;;;7.90;2.50;;;3.90;99.90;;;;;;5054137;28;20061;-88
2023/04/14 03:34:57;;;;;;;4.82;2.05;;;3.90;99.90;;;;;;5057818;28;20044;-90
2023/04/14 03:37:27;;;;;;;5.32;2.20;;;3.90;99.90;;;;;;5071349;28;20043;-89
2023/04/14 03:39:59;;;;;;;4.07;2.17;;;3.90;99.90;;;;;;5056027;28;20057;-88
2023/04/14 03:42:28;;;;;;;6.70;2.72;;;3.80;99.90;;;;;;5053480;28;20475;-89
2023/04/14 03:44:57;;;;;;;5.78;2.30;;;3.80;99.90;;;;;;5074912;28;20080;-88
2023/04/14 03:47:25;;;;;;;5.35;2.38;;;3.70;99.90;;;;;;5048336;28;20070;-89
2023/04/14 03:49:55;;;;;;;5.95;2.30;;;3.70;99.90;;;;;;5055176;28;20473;-89
2023/04/14 03:52:22;;;;;;;8.32;2.80;;;3.60;99.90;;;;;;5054972;28;20084;-89
2023/04/14 03:54:52;;;;;;;6.55;2.30;;;3.50;99.90;;;;;;5055010;28;20047;-89
2023/04/14 03:57:19;;;;;;;5.50;2.55;;;3.40;99.90;;;;;;5054491;28;20048;-88
2023/04/14 03:59:47;;;;;;;9.80;2.58;;;3.30;1.00;;;;;;5058311;28;20049;-89
2023/04/14 04:02:14;;;;;;;4.22;2.42;;;3.50;1.00;;;;;;5049299;28;20045;-90
2023/04/14 04:04:41;;;;;;;5.30;2.50;;;3.20;99.90;;;;;;5052710;28;20083;-89
2023/04/14 04:07:10;;;;;;;7.78;2.63;;;3.40;99.90;;;;;;5037782;28;20052;-88
2023/04/14 04:09:37;;;;;;;7.38;2.33;;;3.40;99.90;;;;;;5054033;28;20044;-90
2023/04/14 04:12:04;;;;;;;5.63;2.20;;;3.40;99.90;;;;;;5038354;28;20045;-89
2023/04/14 04:14:32;;;;;;;5.65;2.20;;;3.00;1.00;;;;;;5070854;28;20105;-88
2023/04/14 04:17:04;;;;;;;10.85;2.78;;;2.90;1.00;;;;;;5066500;28;20055;-89
2023/04/14 04:19:31;;;;;;;5.90;2.75;;;2.80;1.00;;;;;;5047571;28;20047;-89
2023/04/14 04:21:58;;;;;;;6.05;2.30;;;2.70;1.00;;;;;;5035508;28;20076;-89
2023/04/14 04:24:27;;;;;;;4.68;2.50;;;2.70;1.00;;;;;;5038430;28;20048;-89
2023/04/14 04:26:54;;;;;;;6.97;2.63;;;2.70;1.00;;;;;;5062854;28;20048;-88
2023/04/14 04:29:24;;;;;;;6.50;2.42;;;2.80;1.00;;;;;;5039903;28;20048;-89
2023/04/14 04:31:50;;;;;;;5.78;2.20;;;2.70;1.00;;;;;;5055128;28;20105;-88
2023/04/14 04:34:17;;;;;;;4.93;2.40;;;2.50;1.00;;;;;;5074920;28;20048;-90
2023/04/14 04:36:43;;;;;;;5.60;2.75;;;2.50;1.00;;;;;;5053658;28;20072;-88
2023/04/14 04:39:09;;;;;;;3.78;2.38;;;2.40;1.00;;;;;;5054231;28;20040;-89
2023/04/14 04:41:35;;;;;;;8.57;2.97;;;2.40;1.00;;;;;;5062911;28;20044;-88
2023/04/14 04:44:01;;;;;;;5.78;3.10;;;2.40;1.00;;;;;;5049085;28;20040;-88
2023/04/14 04:46:53;;;;;;;8.57;2.70;;;2.40;1.00;;;;;;5048490;28;20055;-88
2023/04/14 04:49:19;;;;;;;6.15;3.10;;;2.40;1.00;;;;;;5051532;28;20447;-89
2023/04/14 04:51:47;;;;;;;4.53;2.75;;;2.40;1.00;;;;;;5054944;28;20078;-90
2023/04/14 04:54:13;;;;;;;6.88;3.38;;;2.50;1.00;;;;;;5047560;28;20055;-87
2023/04/14 04:56:39;;;;;;;3.95;2.70;;;2.50;1.00;;;;;;5037486;28;20229;-88
2023/04/14 04:59:04;;;;;;;5.30;2.42;;;2.70;1.00;;;;;;5056331;28;20154;-87
2023/04/14 05:01:30;;;;;;;4.47;1.85;;;2.70;1.00;;;;;;5058215;28;20051;-88
2023/04/14 05:03:56;;;;;;;9.18;2.55;;;2.60;1.00;;;;;;5063055;28;20474;-87
2023/04/14 05:06:22;;;;;;;5.68;2.75;;;2.60;1.00;;;;;;5041518;28;20048;-90
2023/04/14 05:08:50;;;;;;;4.47;2.45;;;2.70;1.00;;;;;;5072474;28;20085;-85
2023/04/14 05:11:16;;;;;;;6.60;2.70;;;2.40;1.00;;;;;;5075329;28;20047;-86
2023/04/14 05:13:41;;;;;;;7.65;2.85;;;2.70;1.00;;;;;;5065761;28;20039;-86
2023/04/14 05:16:09;;;;;;;6.60;2.60;;;2.80;1.00;;;;;;5058329;28;20056;-86
2023/04/14 05:18:38;;;;;;;8.32;2.92;;;2.30;1.00;;;;;;5057988;28;20109;-86
2023/04/14 05:21:05;;;;;;;5.90;3.10;;;2.30;1.00;;;;;;5042369;28;20043;-86
2023/04/14 05:23:35;;;;;;;6.30;2.60;;;2.30;1.00;;;;;;5057211;28;20040;-88
2023/04/14 05:26:02;;;;;;;8.10;3.55;;;2.30;1.00;;;;;;5056728;28;20090;-91
2023/04/14 05:28:28;;;;;;;12.02;4.13;;;2.80;1.00;;;;;;5057118;28;20504;-84
2023/04/14 05:30:54;;;;;;;13.55;5.30;;;2.70;1.00;;;;;;5057441;28;20041;-83
2023/04/14 05:33:20;;;;;;;9.23;4.63;;;2.50;1.00;;;;;;5061733;28;20503;-85
2023/04/14 05:35:46;;;;;;;17.25;7.60;;;2.30;1.00;;;;;;5051469;28;20040;-86
2023/04/14 05:38:12;;;;;;;20.13;9.60;;;2.40;1.00;;;;;;5035421;28;20048;-85
2023/04/14 05:40:39;;;;;;;19.55;8.98;;;2.40;1.00;;;;;;5064039;28;20409;-85
2023/04/14 05:43:05;;;;;;;17.58;8.30;;;2.30;1.00;;;;;;5061448;28;20131;-85
2023/04/14 05:45:30;;;;;;;13.43;6.47;;;2.30;1.00;;;;;;5073215;28;20044;-85
2023/04/14 05:47:56;;;;;;;18.92;7.15;;;2.40;1.00;;;;;;5061438;28;20050;-86
2023/04/14 05:50:22;;;;;;;17.92;6.78;;;2.60;1.00;;;;;;5058882;28;20079;-87
2023/04/14 05:52:50;;;;;;;11.73;5.55;;;2.70;1.00;;;;;;5041300;28;20134;-88
2023/04/14 05:55:17;;;;;;;10.50;4.22;;;2.40;1.00;;;;;;5073104;28;20032;-89
2023/04/14 05:57:43;;;;;;;8.77;4.70;;;2.60;1.00;;;;;;5052884;28;20049;-88
2023/04/14 06:00:11;;;;;;;10.40;3.85;;;2.40;1.00;;;;;;5064142;28;20055;-88
2023/04/14 06:02:37;;;;;;;11.35;3.92;;;2.40;1.00;;;;;;5072633;28;20173;-85
2023/04/14 06:05:06;;;;;;;13.25;4.05;;;2.50;1.00;;;;;;5056086;28;20044;-86
2023/04/14 06:07:35;;;;;;;10.55;4.13;;;2.50;1.00;;;;;;5074276;28;20061;-84
2023/04/14 06:10:01;;;;;;;8.50;3.50;;;2.60;1.00;;;;;;5078773;28;20055;-85
2023/04/14 06:12:27;;;;;;;11.55;3.70;;;2.90;1.00;;;;;;5078739;28;20054;-85
2023/04/14 06:14:54;;;;;;;11.75;3.90;;;3.30;1.00;;;;;;5080711;28;20052;-90
2023/04/14 06:17:20;;;;;;;7.55;3.28;;;3.60;1.00;;;;;;5086171;28;20035;-85
2023/04/14 06:19:47;;;;;;;9.23;3.58;;;3.50;1.00;;;;;;5061162;28;20051;-86
2023/04/14 06:22:15;;;;;;;5.60;2.80;;;4.00;10.80;;;;;;5045257;28;20043;-86
2023/04/14 06:24:41;;;;;;;6.53;2.72;;;4.00;17.80;;;;;;5061327;28;20050;-87
2023/04/14 06:27:08;;;;;;;4.25;2.40;;;4.10;24.80;;;;;;5061559;28;20044;-86
2023/04/14 06:29:34;;;;;;;5.75;2.72;;;4.40;29.90;;;;;;5060411;28;20375;-87
2023/04/14 06:32:00;;;;;;;8.02;2.45;;;4.60;35.40;;;;;;5065854;28;20044;-86
2023/04/14 06:34:26;;;;;;;5.25;2.35;;;4.90;40.60;;;;;;5043024;28;20102;-85
2023/04/14 06:37:00;;;;;;;8.38;2.45;;;4.90;45.80;;;;;;5062339;28;20048;-85
2023/04/14 06:39:32;;;;;;;7.75;2.13;;;5.30;49.80;;;;;;5059905;28;20478;-85
2023/04/14 06:41:57;;;;;;;4.97;2.05;;;5.20;53.10;;;;;;5078017;28;20113;-86
2023/04/14 06:44:23;;;;;;;4.78;2.05;;;5.40;55.00;;;;;;5065046;28;20052;-85
2023/04/14 06:46:49;;;;;;;5.15;2.10;;;5.50;49.10;;;;;;5098100;28;20443;-82
2023/04/14 06:49:16;;;;;;;6.57;2.30;;;5.80;43.10;;;;;;5043443;28;20045;-85
2023/04/14 06:51:42;;;;;;;2.88;2.15;;;5.70;44.50;;;;;;5068082;28;20048;-86
2023/04/14 06:54:08;;;;;;;5.43;2.13;;;5.60;33.20;;;;;;5060045;28;20493;-86
2023/04/14 06:56:34;;;;;;;6.50;2.00;;;5.90;34.50;;;;;;5075492;28;20040;-87
2023/04/14 06:58:59;;;;;;;5.30;2.53;;;6.00;25.40;;;;;;5057915;28;20055;-85
2023/04/14 07:01:25;;;;;;;3.92;2.03;;;6.00;25.40;;;;;;5059346;28;20394;-86
2023/04/14 07:03:51;;;;;;;5.03;1.80;;;6.10;19.50;;;;;;5062267;28;20135;-85
2023/04/14 07:06:17;;;;;;;3.63;2.03;;;6.20;10.20;;;;;;5045915;28;20524;-86
2023/04/14 07:08:43;;;;;;;6.45;2.03;;;6.30;1.00;;;;;;5036255;28;20045;-85
2023/04/14 07:11:10;;;;;;;7.35;2.30;;;6.60;1.00;;;;;;5082379;28;20048;-84
2023/04/14 07:13:37;;;;;;;5.55;2.00;;;6.40;1.00;;;;;;5062525;28;20048;-85
2023/04/14 07:16:05;;;;;;;4.50;2.10;;;6.40;1.00;;;;;;5046995;28;20059;-85
2023/04/14 07:18:33;;;;;;;7.68;2.03;;;6.60;1.00;;;;;;5089836;28;20148;-88
2023/04/14 07:21:00;;;;;;;6.45;1.70;;;6.70;1.00;;;;;;5035548;28;20119;-83
2023/04/14 07:23:26;;;;;;;5.55;1.70;;;6.70;1.00;;;;;;5059728;28;20135;-83
2023/04/14 07:25:53;;;;;;;8.77;1.85;;;6.90;1.00;;;;;;5026066;28;20083;-83
2023/04/14 07:28:20;;;;;;;6.05;2.05;;;7.00;99.90;;;;;;5059532;28;20050;-83
2023/04/14 07:30:45;;;;;;;5.68;2.28;;;7.00;99.90;;;;;;5074783;28;20076;-84
2023/04/14 07:33:11;;;;;;;4.97;1.42;;;7.10;99.90;;;;;;5067307;28;20080;-83
2023/04/14 07:35:37;;;;;;;8.57;2.75;;;7.20;99.90;;;;;;5037577;28;20106;-84
2023/04/14 07:38:03;;;;;;;6.72;1.52;;;7.20;99.90;;;;;;5038721;28;20143;-83
2023/04/14 07:40:29;;;;;;;4.28;1.52;;;7.30;99.90;;;;;;5070413;28;20055;-83
2023/04/14 07:42:55;;;;;;;5.88;2.28;;;7.40;99.90;;;;;;5075372;28;20106;-84
2023/04/14 07:45:21;;;;;;;7.85;1.75;;;7.50;99.90;;;;;;5058752;28;20068;-84
2023/04/14 07:47:47;;;;;;;6.75;1.48;;;7.70;1.00;;;;;;5068109;28;20079;-84
2023/04/14 07:50:12;;;;;;;6.28;2.92;;;7.90;1.00;;;;;;5044607;28;20431;-84
2023/04/14 07:52:38;;;;;;;5.78;1.45;;;8.00;1.00;;;;;;5075113;28;20044;-83
2023/04/14 07:55:04;;;;;;;4.60;1.08;;;8.10;1.00;;;;;;5055095;28;20592;-86
2023/04/14 07:57:30;;;;;;;9.82;1.50;;;8.10;1.00;;;;;;5054660;28;20048;-86
2023/04/14 07:59:55;;;;;;;5.30;1.10;;;8.20;1.00;;;;;;5053692;28;20105;-85
2023/04/14 08:02:21;;;;;;;7.63;1.08;;;8.30;1.00;;;;;;5049102;28;20062;-82
2023/04/14 08:04:47;;;;;;;6.18;1.85;;;8.40;1.00;;;;;;5063611;28;20113;-88
2023/04/14 08:07:13;;;;;;;3.95;1.13;;;8.50;1.00;;;;;;5065698;28;20045;-83
2023/04/14 08:09:39;;;;;;;9.90;1.40;;;8.50;1.00;;;;;;5073003;28;20051;-81
2023/04/14 08:12:04;;;;;;;7.72;1.40;;;8.60;1.00;;;;;;5056736;28;20056;-87
2023/04/14 08:14:30;;;;;;;5.80;1.65;;;8.70;99.90;;;;;;5067311;28;20044;-85
2023/04/14 08:16:56;;;;;;;6.88;1.40;;;8.80;99.90;;;;;;5078573;28;20055;-84
2023/04/14 08:19:21;;;;;;;4.25;1.20;;;8.90;99.90;;;;;;5042233;28;20079;-88
2023/04/14 08:21:47;;;;;;;9.43;2.10;;;9.00;99.90;;;;;;5049862;28;20512;-90
2023/04/14 08:24:13;;;;;;;8.35;1.75;;;9.20;99.90;;;;;;5039470;28;20181;-87
2023/04/14 08:26:39;;;;;;;9.02;1.52;;;9.30;99.90;;;;;;5039819;28;20454;-84
2023/04/14 08:29:05;;;;;;;9.38;1.60;;;9.50;99.90;;;;;;5042563;28;20056;-88
2023/04/14 08:31:32;;;;;;;5.30;1.33;;;9.50;99.90;;;;;;5045102;28;20048;-83
2023/04/14 08:33:57;;;;;;;10.40;1.30;;;9.60;99.90;;;;;;5065815;28;20139;-84
2023/04/14 08:36:24;;;;;;;6.28;1.42;;;9.60;99.90;;;;;;5037403;28;20460;-83
2023/04/14 08:38:49;;;;;;;7.65;1.88;;;9.70;99.90;;;;;;5040496;28;20143;-89
2023/04/14 08:41:18;;;;;;;7.50;1.50;;;9.70;99.90;;;;;;5059187;28;20394;-84
2023/04/14 08:43:45;;;;;;;6.85;1.20;;;9.80;99.90;;;;;;5078525;28;20431;-83
2023/04/14 08:46:10;;;;;;;9.13;1.50;;;9.90;99.90;;;;;;5071215;28;20046;-86
2023/04/14 08:48:38;;;;;;;7.00;1.45;;;10.00;99.90;;;;;;5049216;28;20040;-85
2023/04/14 08:51:16;;;;;;;5.25;1.40;;;10.10;99.90;;;;;;5072542;28;20035;-85
2023/04/14 08:53:44;;;;;;;13.90;1.63;;;10.20;99.90;;;;;;5066406;28;20121;-85
2023/04/14 08:56:13;;;;;;;5.65;1.23;;;10.40;99.90;;;;;;5069499;28;20109;-86
2023/04/14 08:58:40;;;;;;;5.50;1.17;;;10.50;99.90;;;;;;5056434;28;20097;-85
2023/04/14 09:01:07;;;;;;;7.00;1.33;;;10.60;99.90;;;;;;5057723;28;20050;-85
2023/04/14 09:03:34;;;;;;;9.20;1.65;;;10.80;99.90;;;;;;5057486;28;20040;-85
2023/04/14 09:06:00;;;;;;;5.78;1.40;;;11.00;99.90;;;;;;5056497;28;20056;-85
2023/04/14 09:08:27;;;;;;;7.88;1.50;;;11.20;99.90;;;;;;5056215;28;20035;-85
2023/04/14 09:10:53;;;;;;;3.05;1.02;;;11.40;99.90;;;;;;5050196;28;20050;-89
2023/04/14 09:13:21;;;;;;;6.95;1.20;;;11.60;99.90;;;;;;5087394;28;20040;-85
2023/04/14 09:15:48;;;;;;;8.45;1.55;;;11.80;99.90;;;;;;5057731;28;20052;-85
2023/04/14 09:18:15;;;;;;;4.18;1.52;;;12.00;90.20;;;;;;5078033;28;20549;-85
2023/04/14 09:20:41;;;;;;;4.45;1.08;;;12.30;99.90;;;;;;5082055;28;20486;-86
2023/04/14 09:23:08;;;;;;;6.57;1.52;;;12.50;93.60;;;;;;5056838;28;20059;-85
2023/04/14 09:25:35;;;;;;;4.15;1.73;;;13.00;79.30;;;;;;5057438;28;20059;-86
2023/04/14 09:28:01;;;;;;;4.75;1.23;;;14.40;42.10;;;;;;5074041;28;20052;-85
2023/04/14 09:30:27;;;;;;;6.18;1.02;;;15.80;1.00;;;;;;5056949;28;20051;-86
2023/04/14 09:32:53;;;;;;;6.78;1.30;;;17.20;1.00;;;;;;5047114;28;20435;-86
2023/04/14 09:35:19;;;;;;;5.03;1.20;;;18.10;1.00;;;;;;5059833;28;20140;-88
2023/04/14 09:37:47;;;;;;;6.30;1.25;;;19.00;1.00;;;;;;5076514;28;20072;-86
2023/04/14 09:40:31;;;;;;;5.47;1.20;;;19.80;1.00;;;;;;5076438;28;20067;-86
2023/04/14 09:42:57;;;;;;;7.32;1.30;;;20.50;1.00;;;;;;5068041;28;20193;-91
2023/04/14 09:45:43;;;;;;;10.27;1.20;;;21.00;1.00;;;;;;5057467;28;20548;-86
2023/04/14 09:48:10;;;;;;;5.80;1.10;;;21.40;1.00;;;;;;5064697;28;20051;-85
2023/04/14 09:50:56;;;;;;;5.47;1.70;;;21.80;1.00;;;;;;5064129;28;20123;-85
2023/04/14 09:53:31;;;;;;;4.25;1.20;;;22.50;1.00;;;;;;5077807;28;20044;-86
2023/04/14 09:56:04;;;;;;;4.57;1.23;;;22.90;1.00;;;;;;5061425;28;20460;-87
2023/04/14 09:58:41;;;;;;;6.88;1.52;;;23.20;1.00;;;;;;5060405;28;20124;-85
2023/04/14 10:01:15;;;;;;;10.50;1.50;;;23.00;1.00;;;;;;5060545;28;20528;-85
2023/04/14 10:03:46;;;;;;;5.00;1.42;;;23.30;1.00;;;;;;5041153;28;20105;-87
2023/04/14 10:06:23;;;;;;;6.72;1.60;;;23.70;1.00;;;;;;5077066;28;20048;-85
2023/04/14 10:08:54;;;;;;;6.40;1.63;;;22.70;1.00;;;;;;5057760;28;20044;-86
2023/04/14 10:11:28;;;;;;;5.72;1.20;;;22.20;1.00;;;;;;5071638;28;20051;-87
2023/04/14 10:13:56;;;;;;;4.40;1.35;;;22.60;1.00;;;;;;5049920;28;20511;-87
2023/04/14 10:16:23;;;;;;;5.35;1.30;;;22.80;1.00;;;;;;5072172;28;20541;-85
2023/04/14 10:18:50;;;;;;;5.88;1.60;;;22.90;1.00;;;;;;5060567;28;20043;-86
2023/04/14 10:21:16;;;;;;;4.68;1.42;;;23.30;1.00;;;;;;5047434;28;20123;-86
2023/04/14 10:23:43;;;;;;;3.58;1.23;;;24.00;1.00;;;;;;5070191;28;20131;-85
2023/04/14 10:26:11;;;;;;;4.80;1.13;;;23.90;1.00;;;;;;5060286;28;20091;-86
2023/04/14 10:28:42;;;;;;;5.57;1.33;;;22.80;1.00;;;;;;5077469;28;20102;-84
2023/04/14 10:34:23;;;;;;;6.60;1.23;;;23.10;1.00;;;;;;5077611;28;20050;-84
2023/04/14 10:36:48;;;;;;;7.15;1.70;;;23.70;1.00;;;;;;5077753;28;20047;-86
2023/04/14 10:39:22;;;;;;;4.57;1.38;;;24.50;1.00;;;;;;5076950;28;20040;-86
2023/04/14 10:41:49;;;;;;;3.75;1.50;;;25.10;1.00;;;;;;5077378;28;20061;-86
2023/04/14 10:44:23;;;;;;;6.97;1.85;;;25.50;1.00;;;;;;5076981;28;20047;-84
2023/04/14 10:46:50;;;;;;;4.75;1.30;;;26.00;1.00;;;;;;5061184;28;20044;-85
2023/04/14 10:49:16;;;;;;;6.05;1.67;;;26.30;1.00;;;;;;5079787;28;20118;-88
2023/04/14 10:51:43;;;;;;;5.22;1.10;;;26.70;1.00;;;;;;5070125;28;20040;-87
2023/04/14 10:54:19;;;;;;;3.40;1.42;;;26.90;1.00;;;;;;5056331;28;20504;-91
2023/04/14 10:57:07;;;;;;;4.30;1.20;;;27.00;1.00;;;;;;5041995;28;20048;-85
2023/04/14 10:59:33;;;;;;;5.35;1.30;;;27.10;1.00;;;;;;5068124;28;20048;-85
2023/04/14 11:01:59;;;;;;;5.45;1.23;;;26.90;1.00;;;;;;5074239;28;20067;-85
2023/04/14 11:04:24;;;;;;;3.70;0.90;;;26.80;1.00;;;;;;5060210;28;20473;-86
2023/04/14 11:06:53;;;;;;;4.88;1.20;;;26.10;1.00;;;;;;5064551;28;20071;-85
2023/04/14 11:09:28;;;;;;;3.30;1.10;;;26.30;1.00;;;;;;5093794;28;20067;-84
2023/04/14 11:11:55;;;;;;;;;;;26.60;1.00;;;;;;5074755;28;20040;-86
2023/04/14 11:14:26;;;;;;;6.57;1.30;;;26.90;1.00;;;;;;5073280;28;19920;-85
2023/04/14 11:17:00;;;;;;;6.53;1.30;;;27.70;1.00;;;;;;5056942;28;20064;-86
2023/04/14 11:19:27;;;;;;;5.93;1.52;;;27.60;1.00;;;;;;5073234;28;20059;-86
2023/04/14 11:21:53;;;;;;;3.78;1.13;;;27.30;1.00;;;;;;5057410;28;20072;-85
2023/04/14 11:24:25;;;;;;;3.80;0.85;;;27.10;1.00;;;;;;5060052;28;20079;-85
2023/04/14 11:26:55;;;;;;;5.72;1.40;;;27.50;1.00;;;;;;5040857;28;20134;-84
2023/04/14 11:29:21;;;;;;;4.68;1.30;;;27.80;1.00;;;;;;5072783;28;20135;-85
2023/04/14 11:32:04;;;;;;;4.30;1.40;;;28.00;1.00;;;;;;5057442;28;20047;-84
2023/04/14 11:34:30;;;;;;;5.03;1.20;;;28.40;1.00;;;;;;5043981;28;20135;-85
2023/04/14 11:36:55;;;;;;;3.33;1.10;;;28.70;1.00;;;;;;5074005;28;20123;-85
2023/04/14 11:39:22;;;;;;;2.65;1.20;;;29.00;1.00;;;;;;5045217;28;20044;-85
2023/04/14 11:41:49;;;;;;;5.85;1.60;;;28.60;1.00;;;;;;5065175;28;20062;-85
2023/04/14 11:44:19;;;;;;;4.25;1.08;;;27.10;1.00;;;;;;5056945;28;20461;-87
2023/04/14 11:46:45;;;;;;;4.15;1.40;;;25.80;1.00;;;;;;5044534;28;20450;-85
2023/04/14 11:49:11;;;;;;;4.05;1.30;;;25.50;1.00;;;;;;5067880;28;20521;-85
2023/04/14 11:51:37;;;;;;;4.32;1.25;;;24.60;1.00;;;;;;5063065;28;20088;-85
2023/04/14 11:54:03;;;;;;;4.97;1.55;;;23.40;1.00;;;;;;5070483;28;20446;-86
2023/04/14 11:56:30;;;;;;;4.70;1.45;;;22.40;1.00;;;;;;5073100;28;20048;-86
2023/04/14 11:59:05;;;;;;;5.45;1.73;;;22.10;1.00;;;;;;5040883;28;20050;-85
2023/04/14 12:01:31;;;;;;;4.13;1.50;;;21.80;1.00;;;;;;5072794;28;20141;-85
2023/04/14 12:03:58;;;;;;;4.25;1.45;;;21.10;1.00;;;;;;5055653;28;20047;-84
2023/04/14 12:06:26;;;;;;;3.28;1.10;;;20.60;1.00;;;;;;5045117;28;20105;-85
2023/04/14 12:09:02;;;;;;;8.68;1.40;;;21.90;1.00;;;;;;5073606;28;20127;-84
2023/04/14 12:11:28;;;;;;;5.00;1.33;;;22.90;1.00;;;;;;5055959;28;20062;-85
2023/04/14 12:13:55;;;;;;;4.90;1.42;;;23.80;1.00;;;;;;5073668;28;20040;-84
2023/04/14 12:16:22;;;;;;;3.70;1.00;;;23.20;1.00;;;;;;5056499;28;20052;-85
2023/04/14 12:18:48;;;;;;;6.13;2.42;;;22.30;1.00;;;;;;5056854;28;20039;-85
2023/04/14 12:21:20;;;;;;;7.78;2.35;;;21.10;1.00;;;;;;5056651;28;20055;-85
2023/04/14 12:23:47;;;;;;;7.07;2.42;;;20.10;1.00;;;;;;5083971;28;20092;-85
2023/04/14 12:26:13;;;;;;;5.15;2.63;;;19.80;1.00;;;;;;5042635;28;20115;-85
2023/04/14 12:28:40;;;;;;;8.07;3.35;;;20.70;1.00;;;;;;5056225;28;20195;-85
2023/04/14 12:31:06;;;;;;;6.13;1.58;;;20.90;1.00;;;;;;5072930;28;20048;-84
2023/04/14 12:33:33;;;;;;;7.50;2.72;;;20.00;1.00;;;;;;5072373;28;20058;-84
2023/04/14 12:36:04;;;;;;;4.60;1.70;;;19.30;1.00;;;;;;5056477;28;20489;-84
2023/04/14 12:38:30;;;;;;;7.57;1.63;;;18.80;1.00;;;;;;5055828;28;20105;-84
2023/04/14 12:40:55;;;;;;;5.43;1.73;;;18.40;1.00;;;;;;5055943;28;20048;-85
2023/04/14 12:43:33;;;;;;;7.45;1.60;;;18.40;1.00;;;;;;5070674;28;20060;-88
2023/04/14 12:45:59;;;;;;;3.90;1.70;;;18.30;1.00;;;;;;5063309;28;20738;-85
2023/04/14 12:48:58;;;;;;;4.22;1.60;;;18.00;1.00;;;;;;5055478;28;20036;-85
2023/04/14 12:51:23;;;;;;;4.22;1.80;;;18.30;1.00;;;;;;4993080;28;20088;-85
2023/04/14 12:53:50;;;;;;;8.13;1.60;;;19.40;1.00;;;;;;5060816;28;20082;-84
2023/04/14 12:56:18;;;;;;;6.65;1.50;;;20.00;1.00;;;;;;5038262;28;20136;-85
2023/04/14 12:58:45;;;;;;;5.35;1.80;;;19.30;1.00;;;;;;5055262;28;20113;-85
2023/04/14 13:01:12;;;;;;;3.95;1.58;;;18.50;1.00;;;;;;5072129;28;20048;-84
2023/04/14 13:03:44;;;;;;;3.25;1.50;;;17.80;1.00;;;;;;5072057;28;20040;-85
2023/04/14 13:06:11;;;;;;;5.75;1.55;;;17.50;1.00;;;;;;5073028;28;20205;-85
2023/04/14 13:08:37;;;;;;;4.22;1.30;;;19.00;1.00;;;;;;5059112;28;20486;-85
2023/04/14 13:11:03;;;;;;;6.03;1.45;;;21.40;1.00;;;;;;5047774;28;20044;-85